sensor_id;sensor_type;location;lat;lon;timestamp;P1;durP1;ratioP1;P2;durP2;ratioP2
23986;SDS011;12514;52.140;5.602;2022-07-23T00:00:39;4.00;;;2.35;;
23986;SDS011;12514;52.140;5.602;2022-07-23T00:03:05;5.22;;;2.42;;
23986;SDS011;12514;52.140;5.602;2022-07-23T00:05:31;2.60;;;2.40;;
23986;SDS011;12514;52.140;5.602;2022-07-23T00:11:18;4.55;;;2.92;;
23986;SDS011;12514;52.140;5.602;2022-07-23T00:13:44;4.07;;;2.85;;
23986;SDS011;12514;52.140;5.602;2022-07-23T00:16:10;2.75;;;2.58;;
23986;SDS011;12514;52.140;5.602;2022-07-23T00:18:36;3.13;;;2.92;;
23986;SDS011;12514;52.140;5.602;2022-07-23T00:21:01;5.07;;;2.60;;
23986;SDS011;12514;52.140;5.602;2022-07-23T00:23:27;2.90;;;2.70;;
23986;SDS011;12514;52.140;5.602;2022-07-23T00:25:53;3.08;;;2.67;;
23986;SDS011;12514;52.140;5.602;2022-07-23T00:28:19;5.63;;;2.70;;
23986;SDS011;12514;52.140;5.602;2022-07-23T00:30:45;5.68;;;2.65;;
23986;SDS011;12514;52.140;5.602;2022-07-23T00:33:11;2.58;;;2.47;;
23986;SDS011;12514;52.140;5.602;2022-07-23T00:35:37;4.22;;;2.47;;
23986;SDS011;12514;52.140;5.602;2022-07-23T00:41:27;2.75;;;2.60;;
23986;SDS011;12514;52.140;5.602;2022-07-23T00:43:52;3.17;;;2.97;;
23986;SDS011;12514;52.140;5.602;2022-07-23T00:46:19;3.30;;;3.00;;
23986;SDS011;12514;52.140;5.602;2022-07-23T00:48:45;3.28;;;2.83;;
23986;SDS011;12514;52.140;5.602;2022-07-23T00:51:11;2.90;;;2.70;;
23986;SDS011;12514;52.140;5.602;2022-07-23T00:53:36;2.70;;;2.50;;
23986;SDS011;12514;52.140;5.602;2022-07-23T00:56:02;5.47;;;3.35;;
23986;SDS011;12514;52.140;5.602;2022-07-23T00:58:28;2.85;;;2.65;;
23986;SDS011;12514;52.140;5.602;2022-07-23T01:00:54;3.17;;;2.72;;
23986;SDS011;12514;52.140;5.602;2022-07-23T01:03:19;4.22;;;3.25;;
23986;SDS011;12514;52.140;5.602;2022-07-23T01:05:45;3.25;;;2.78;;
23986;SDS011;12514;52.140;5.602;2022-07-23T01:11:33;5.10;;;2.90;;
23986;SDS011;12514;52.140;5.602;2022-07-23T01:16:41;3.92;;;2.70;;
23986;SDS011;12514;52.140;5.602;2022-07-23T01:19:08;3.10;;;2.90;;
23986;SDS011;12514;52.140;5.602;2022-07-23T01:21:39;3.72;;;2.67;;
23986;SDS011;12514;52.140;5.602;2022-07-23T01:24:06;2.90;;;2.70;;
23986;SDS011;12514;52.140;5.602;2022-07-23T01:26:32;2.85;;;2.70;;
23986;SDS011;12514;52.140;5.602;2022-07-23T01:28:58;3.53;;;2.92;;
23986;SDS011;12514;52.140;5.602;2022-07-23T01:31:24;3.38;;;2.88;;
23986;SDS011;12514;52.140;5.602;2022-07-23T01:33:50;2.88;;;2.70;;
23986;SDS011;12514;52.140;5.602;2022-07-23T01:36:15;5.18;;;3.47;;
23986;SDS011;12514;52.140;5.602;2022-07-23T01:38:41;2.50;;;2.40;;
23986;SDS011;12514;52.140;5.602;2022-07-23T01:41:06;4.80;;;3.05;;
23986;SDS011;12514;52.140;5.602;2022-07-23T01:43:32;5.05;;;2.90;;
23986;SDS011;12514;52.140;5.602;2022-07-23T01:45:58;3.33;;;3.13;;
23986;SDS011;12514;52.140;5.602;2022-07-23T01:48:23;3.08;;;2.88;;
23986;SDS011;12514;52.140;5.602;2022-07-23T01:50:49;3.22;;;2.88;;
23986;SDS011;12514;52.140;5.602;2022-07-23T01:56:36;2.90;;;2.80;;
23986;SDS011;12514;52.140;5.602;2022-07-23T01:59:02;3.03;;;2.83;;
23986;SDS011;12514;52.140;5.602;2022-07-23T02:01:27;3.65;;;3.15;;
23986;SDS011;12514;52.140;5.602;2022-07-23T02:03:53;2.83;;;2.70;;
23986;SDS011;12514;52.140;5.602;2022-07-23T02:06:18;3.50;;;3.08;;
23986;SDS011;12514;52.140;5.602;2022-07-23T02:08:44;3.35;;;3.08;;
23986;SDS011;12514;52.140;5.602;2022-07-23T02:11:10;3.92;;;3.53;;
23986;SDS011;12514;52.140;5.602;2022-07-23T02:13:35;3.53;;;3.20;;
23986;SDS011;12514;52.140;5.602;2022-07-23T02:16:01;3.38;;;3.17;;
23986;SDS011;12514;52.140;5.602;2022-07-23T02:18:26;3.30;;;2.97;;
23986;SDS011;12514;52.140;5.602;2022-07-23T02:20:52;3.67;;;3.38;;
23986;SDS011;12514;52.140;5.602;2022-07-23T02:26:39;3.60;;;3.40;;
23986;SDS011;12514;52.140;5.602;2022-07-23T02:29:05;3.58;;;3.30;;
23986;SDS011;12514;52.140;5.602;2022-07-23T02:31:31;4.75;;;3.47;;
23986;SDS011;12514;52.140;5.602;2022-07-23T02:33:57;3.70;;;3.50;;
23986;SDS011;12514;52.140;5.602;2022-07-23T02:36:23;3.55;;;3.17;;
23986;SDS011;12514;52.140;5.602;2022-07-23T02:42:10;3.38;;;3.17;;
23986;SDS011;12514;52.140;5.602;2022-07-23T02:44:36;7.70;;;3.45;;
23986;SDS011;12514;52.140;5.602;2022-07-23T02:47:02;3.63;;;3.30;;
23986;SDS011;12514;52.140;5.602;2022-07-23T02:49:27;3.80;;;3.50;;
23986;SDS011;12514;52.140;5.602;2022-07-23T02:51:53;5.45;;;3.25;;
23986;SDS011;12514;52.140;5.602;2022-07-23T02:54:19;3.67;;;3.38;;
23986;SDS011;12514;52.140;5.602;2022-07-23T02:56:44;3.67;;;3.28;;
23986;SDS011;12514;52.140;5.602;2022-07-23T02:59:10;3.72;;;3.53;;
23986;SDS011;12514;52.140;5.602;2022-07-23T03:01:35;3.47;;;3.28;;
23986;SDS011;12514;52.140;5.602;2022-07-23T03:04:01;3.63;;;3.28;;
23986;SDS011;12514;52.140;5.602;2022-07-23T03:06:27;4.10;;;3.80;;
23986;SDS011;12514;52.140;5.602;2022-07-23T03:12:14;3.33;;;3.22;;
23986;SDS011;12514;52.140;5.602;2022-07-23T03:14:40;3.15;;;2.95;;
23986;SDS011;12514;52.140;5.602;2022-07-23T03:17:06;3.30;;;3.10;;
23986;SDS011;12514;52.140;5.602;2022-07-23T03:19:31;4.28;;;3.63;;
23986;SDS011;12514;52.140;5.602;2022-07-23T03:21:57;3.35;;;3.22;;
23986;SDS011;12514;52.140;5.602;2022-07-23T03:24:23;4.13;;;3.78;;
23986;SDS011;12514;52.140;5.602;2022-07-23T03:27:08;3.67;;;3.47;;
23986;SDS011;12514;52.140;5.602;2022-07-23T03:29:34;4.00;;;3.60;;
23986;SDS011;12514;52.140;5.602;2022-07-23T03:32:00;4.97;;;3.80;;
23986;SDS011;12514;52.140;5.602;2022-07-23T03:34:26;3.97;;;3.28;;
23986;SDS011;12514;52.140;5.602;2022-07-23T03:36:52;4.07;;;3.80;;
23986;SDS011;12514;52.140;5.602;2022-07-23T03:39:17;3.90;;;3.42;;
23986;SDS011;12514;52.140;5.602;2022-07-23T03:41:43;4.03;;;3.70;;
23986;SDS011;12514;52.140;5.602;2022-07-23T03:44:08;3.85;;;3.65;;
23986;SDS011;12514;52.140;5.602;2022-07-23T03:46:34;4.15;;;3.95;;
23986;SDS011;12514;52.140;5.602;2022-07-23T03:48:59;4.70;;;4.30;;
23986;SDS011;12514;52.140;5.602;2022-07-23T03:51:25;4.38;;;4.15;;
23986;SDS011;12514;52.140;5.602;2022-07-23T03:57:12;3.83;;;3.63;;
23986;SDS011;12514;52.140;5.602;2022-07-23T03:59:38;4.10;;;3.80;;
23986;SDS011;12514;52.140;5.602;2022-07-23T04:02:03;4.20;;;3.90;;
23986;SDS011;12514;52.140;5.602;2022-07-23T04:04:29;4.65;;;3.88;;
23986;SDS011;12514;52.140;5.602;2022-07-23T04:06:55;4.68;;;4.15;;
23986;SDS011;12514;52.140;5.602;2022-07-23T04:12:42;4.80;;;3.95;;
23986;SDS011;12514;52.140;5.602;2022-07-23T04:15:08;3.85;;;3.65;;
23986;SDS011;12514;52.140;5.602;2022-07-23T04:17:34;3.92;;;3.70;;
23986;SDS011;12514;52.140;5.602;2022-07-23T04:19:59;4.07;;;3.78;;
23986;SDS011;12514;52.140;5.602;2022-07-23T04:22:25;4.45;;;4.15;;
23986;SDS011;12514;52.140;5.602;2022-07-23T04:24:51;4.57;;;4.28;;
23986;SDS011;12514;52.140;5.602;2022-07-23T04:27:17;4.97;;;4.00;;
23986;SDS011;12514;52.140;5.602;2022-07-23T04:29:43;4.18;;;3.97;;
23986;SDS011;12514;52.140;5.602;2022-07-23T04:32:08;4.13;;;3.83;;
23986;SDS011;12514;52.140;5.602;2022-07-23T04:34:34;6.78;;;3.47;;
23986;SDS011;12514;52.140;5.602;2022-07-23T04:36:59;3.90;;;3.65;;
23986;SDS011;12514;52.140;5.602;2022-07-23T04:42:47;4.57;;;4.28;;
23986;SDS011;12514;52.140;5.602;2022-07-23T04:45:12;3.35;;;3.05;;
23986;SDS011;12514;52.140;5.602;2022-07-23T04:47:38;6.65;;;4.10;;
23986;SDS011;12514;52.140;5.602;2022-07-23T04:50:03;4.07;;;3.80;;
23986;SDS011;12514;52.140;5.602;2022-07-23T04:52:29;4.45;;;4.00;;
23986;SDS011;12514;52.140;5.602;2022-07-23T04:54:55;4.18;;;3.97;;
23986;SDS011;12514;52.140;5.602;2022-07-23T04:57:20;4.60;;;4.25;;
23986;SDS011;12514;52.140;5.602;2022-07-23T04:59:46;4.43;;;4.07;;
23986;SDS011;12514;52.140;5.602;2022-07-23T05:02:11;5.85;;;3.88;;
23986;SDS011;12514;52.140;5.602;2022-07-23T05:04:37;4.40;;;4.10;;
23986;SDS011;12514;52.140;5.602;2022-07-23T05:07:03;4.20;;;3.90;;
23986;SDS011;12514;52.140;5.602;2022-07-23T05:12:51;4.32;;;4.00;;
23986;SDS011;12514;52.140;5.602;2022-07-23T05:15:16;6.75;;;4.60;;
23986;SDS011;12514;52.140;5.602;2022-07-23T05:17:42;5.78;;;4.57;;
23986;SDS011;12514;52.140;5.602;2022-07-23T05:20:07;4.53;;;4.15;;
23986;SDS011;12514;52.140;5.602;2022-07-23T05:22:33;5.00;;;4.50;;
23986;SDS011;12514;52.140;5.602;2022-07-23T05:24:59;4.72;;;4.32;;
23986;SDS011;12514;52.140;5.602;2022-07-23T05:27:24;4.68;;;4.28;;
23986;SDS011;12514;52.140;5.602;2022-07-23T05:29:50;5.47;;;4.28;;
23986;SDS011;12514;52.140;5.602;2022-07-23T05:32:15;4.20;;;4.00;;
23986;SDS011;12514;52.140;5.602;2022-07-23T05:34:41;4.72;;;4.38;;
23986;SDS011;12514;52.140;5.602;2022-07-23T05:37:06;7.10;;;4.20;;
23986;SDS011;12514;52.140;5.602;2022-07-23T05:42:54;4.70;;;4.30;;
23986;SDS011;12514;52.140;5.602;2022-07-23T05:45:19;4.05;;;3.75;;
23986;SDS011;12514;52.140;5.602;2022-07-23T05:47:46;4.28;;;3.83;;
23986;SDS011;12514;52.140;5.602;2022-07-23T05:50:13;4.00;;;3.80;;
23986;SDS011;12514;52.140;5.602;2022-07-23T05:52:39;3.80;;;3.60;;
23986;SDS011;12514;52.140;5.602;2022-07-23T05:55:07;3.85;;;3.65;;
23986;SDS011;12514;52.140;5.602;2022-07-23T05:57:33;4.00;;;3.60;;
23986;SDS011;12514;52.140;5.602;2022-07-23T05:59:59;3.70;;;3.40;;
23986;SDS011;12514;52.140;5.602;2022-07-23T06:02:25;5.05;;;3.20;;
23986;SDS011;12514;52.140;5.602;2022-07-23T06:04:51;3.13;;;2.92;;
23986;SDS011;12514;52.140;5.602;2022-07-23T06:07:16;10.93;;;3.28;;
23986;SDS011;12514;52.140;5.602;2022-07-23T06:13:04;1.92;;;1.80;;
23986;SDS011;12514;52.140;5.602;2022-07-23T06:15:30;2.20;;;2.08;;
23986;SDS011;12514;52.140;5.602;2022-07-23T06:17:55;2.20;;;2.00;;
23986;SDS011;12514;52.140;5.602;2022-07-23T06:20:21;4.20;;;2.22;;
23986;SDS011;12514;52.140;5.602;2022-07-23T06:22:47;3.55;;;2.63;;
23986;SDS011;12514;52.140;5.602;2022-07-23T06:25:12;2.65;;;2.45;;
23986;SDS011;12514;52.140;5.602;2022-07-23T06:27:38;3.10;;;2.17;;
23986;SDS011;12514;52.140;5.602;2022-07-23T06:30:04;2.50;;;2.30;;
23986;SDS011;12514;52.140;5.602;2022-07-23T06:32:30;3.83;;;2.45;;
23986;SDS011;12514;52.140;5.602;2022-07-23T06:34:56;2.60;;;2.13;;
23986;SDS011;12514;52.140;5.602;2022-07-23T06:37:22;4.95;;;2.85;;
23986;SDS011;12514;52.140;5.602;2022-07-23T06:43:09;2.83;;;2.63;;
23986;SDS011;12514;52.140;5.602;2022-07-23T06:45:35;3.17;;;2.88;;
23986;SDS011;12514;52.140;5.602;2022-07-23T06:48:01;2.95;;;2.55;;
23986;SDS011;12514;52.140;5.602;2022-07-23T06:50:28;4.40;;;2.58;;
23986;SDS011;12514;52.140;5.602;2022-07-23T06:52:53;2.70;;;2.50;;
23986;SDS011;12514;52.140;5.602;2022-07-23T06:55:19;5.88;;;2.45;;
23986;SDS011;12514;52.140;5.602;2022-07-23T06:57:45;4.20;;;2.50;;
23986;SDS011;12514;52.140;5.602;2022-07-23T07:00:11;3.17;;;2.58;;
23986;SDS011;12514;52.140;5.602;2022-07-23T07:02:37;2.50;;;2.40;;
23986;SDS011;12514;52.140;5.602;2022-07-23T07:05:02;2.55;;;2.35;;
23986;SDS011;12514;52.140;5.602;2022-07-23T07:07:28;2.40;;;2.30;;
23986;SDS011;12514;52.140;5.602;2022-07-23T07:13:16;2.25;;;2.15;;
23986;SDS011;12514;52.140;5.602;2022-07-23T07:15:42;3.17;;;2.40;;
23986;SDS011;12514;52.140;5.602;2022-07-23T07:18:07;2.30;;;2.10;;
23986;SDS011;12514;52.140;5.602;2022-07-23T07:20:33;1.73;;;1.60;;
23986;SDS011;12514;52.140;5.602;2022-07-23T07:22:59;2.35;;;1.77;;
23986;SDS011;12514;52.140;5.602;2022-07-23T07:25:24;2.75;;;1.80;;
23986;SDS011;12514;52.140;5.602;2022-07-23T07:27:50;1.85;;;1.52;;
23986;SDS011;12514;52.140;5.602;2022-07-23T07:30:16;2.03;;;1.70;;
23986;SDS011;12514;52.140;5.602;2022-07-23T07:32:41;3.10;;;1.92;;
23986;SDS011;12514;52.140;5.602;2022-07-23T07:35:07;1.92;;;1.80;;
23986;SDS011;12514;52.140;5.602;2022-07-23T07:37:33;3.47;;;1.73;;
23986;SDS011;12514;52.140;5.602;2022-07-23T07:43:21;2.70;;;2.50;;
23986;SDS011;12514;52.140;5.602;2022-07-23T07:45:47;2.42;;;2.17;;
23986;SDS011;12514;52.140;5.602;2022-07-23T07:48:12;2.28;;;2.17;;
23986;SDS011;12514;52.140;5.602;2022-07-23T07:50:38;2.40;;;2.30;;
23986;SDS011;12514;52.140;5.602;2022-07-23T07:53:04;2.10;;;2.00;;
23986;SDS011;12514;52.140;5.602;2022-07-23T07:55:29;1.70;;;1.60;;
23986;SDS011;12514;52.140;5.602;2022-07-23T07:57:56;2.55;;;1.95;;
23986;SDS011;12514;52.140;5.602;2022-07-23T08:00:21;3.95;;;2.00;;
23986;SDS011;12514;52.140;5.602;2022-07-23T08:02:48;2.67;;;2.47;;
23986;SDS011;12514;52.140;5.602;2022-07-23T08:05:18;2.55;;;2.05;;
23986;SDS011;12514;52.140;5.602;2022-07-23T08:07:48;2.15;;;2.05;;
23986;SDS011;12514;52.140;5.602;2022-07-23T08:13:36;3.72;;;2.60;;
23986;SDS011;12514;52.140;5.602;2022-07-23T08:16:01;2.35;;;1.98;;
23986;SDS011;12514;52.140;5.602;2022-07-23T08:18:28;2.80;;;2.20;;
23986;SDS011;12514;52.140;5.602;2022-07-23T08:20:53;2.33;;;1.90;;
23986;SDS011;12514;52.140;5.602;2022-07-23T08:23:19;2.20;;;1.60;;
23986;SDS011;12514;52.140;5.602;2022-07-23T08:25:45;2.75;;;2.13;;
23986;SDS011;12514;52.140;5.602;2022-07-23T08:28:12;2.15;;;2.03;;
23986;SDS011;12514;52.140;5.602;2022-07-23T08:30:40;2.67;;;2.50;;
23986;SDS011;12514;52.140;5.602;2022-07-23T08:33:11;2.53;;;2.35;;
23986;SDS011;12514;52.140;5.602;2022-07-23T08:35:39;3.00;;;2.42;;
23986;SDS011;12514;52.140;5.602;2022-07-23T08:38:08;4.45;;;2.55;;
23986;SDS011;12514;52.140;5.602;2022-07-23T08:40:39;2.20;;;1.67;;
23986;SDS011;12514;52.140;5.602;2022-07-23T08:43:06;2.13;;;1.92;;
23986;SDS011;12514;52.140;5.602;2022-07-23T08:45:38;1.60;;;1.50;;
23986;SDS011;12514;52.140;5.602;2022-07-23T08:48:16;1.15;;;1.15;;
23986;SDS011;12514;52.140;5.602;2022-07-23T08:50:44;1.70;;;1.60;;
23986;SDS011;12514;52.140;5.602;2022-07-23T08:53:14;2.35;;;2.08;;
23986;SDS011;12514;52.140;5.602;2022-07-23T08:55:43;1.80;;;1.70;;
23986;SDS011;12514;52.140;5.602;2022-07-23T08:58:09;2.78;;;1.58;;
23986;SDS011;12514;52.140;5.602;2022-07-23T09:00:35;2.92;;;1.35;;
23986;SDS011;12514;52.140;5.602;2022-07-23T09:03:01;3.38;;;1.42;;
23986;SDS011;12514;52.140;5.602;2022-07-23T09:05:27;1.40;;;1.40;;
23986;SDS011;12514;52.140;5.602;2022-07-23T09:13:56;3.15;;;1.58;;
23986;SDS011;12514;52.140;5.602;2022-07-23T09:16:28;1.92;;;1.70;;
23986;SDS011;12514;52.140;5.602;2022-07-23T09:18:56;1.45;;;1.35;;
23986;SDS011;12514;52.140;5.602;2022-07-23T09:21:27;1.52;;;1.52;;
23986;SDS011;12514;52.140;5.602;2022-07-23T09:24:02;2.28;;;1.23;;
23986;SDS011;12514;52.140;5.602;2022-07-23T09:29:03;1.48;;;1.30;;
23986;SDS011;12514;52.140;5.602;2022-07-23T09:34:10;2.22;;;1.20;;
23986;SDS011;12514;52.140;5.602;2022-07-23T09:36:58;1.23;;;1.15;;
23986;SDS011;12514;52.140;5.602;2022-07-23T09:39:35;1.30;;;1.30;;
23986;SDS011;12514;52.140;5.602;2022-07-23T09:42:17;1.40;;;1.30;;
23986;SDS011;12514;52.140;5.602;2022-07-23T09:44:45;1.63;;;1.30;;
23986;SDS011;12514;52.140;5.602;2022-07-23T09:47:13;1.52;;;1.30;;
23986;SDS011;12514;52.140;5.602;2022-07-23T09:49:39;1.95;;;1.80;;
23986;SDS011;12514;52.140;5.602;2022-07-23T09:52:05;2.17;;;1.50;;
23986;SDS011;12514;52.140;5.602;2022-07-23T09:54:35;2.20;;;1.50;;
23986;SDS011;12514;52.140;5.602;2022-07-23T09:57:09;3.22;;;1.55;;
23986;SDS011;12514;52.140;5.602;2022-07-23T09:59:43;1.50;;;1.40;;
23986;SDS011;12514;52.140;5.602;2022-07-23T10:02:12;1.70;;;1.33;;
23986;SDS011;12514;52.140;5.602;2022-07-23T10:04:39;1.88;;;1.48;;
23986;SDS011;12514;52.140;5.602;2022-07-23T10:07:07;3.10;;;1.38;;
23986;SDS011;12514;52.140;5.602;2022-07-23T10:09:36;1.35;;;1.25;;
23986;SDS011;12514;52.140;5.602;2022-07-23T10:12:04;2.28;;;1.42;;
23986;SDS011;12514;52.140;5.602;2022-07-23T10:14:39;3.17;;;1.45;;
23986;SDS011;12514;52.140;5.602;2022-07-23T10:17:06;3.35;;;1.20;;
23986;SDS011;12514;52.140;5.602;2022-07-23T10:19:32;1.02;;;1.02;;
23986;SDS011;12514;52.140;5.602;2022-07-23T10:22:00;1.10;;;1.00;;
23986;SDS011;12514;52.140;5.602;2022-07-23T10:30:34;2.22;;;0.90;;
23986;SDS011;12514;52.140;5.602;2022-07-23T10:33:12;1.10;;;1.10;;
23986;SDS011;12514;52.140;5.602;2022-07-23T10:38:35;3.58;;;1.17;;
23986;SDS011;12514;52.140;5.602;2022-07-23T10:41:41;1.85;;;1.17;;
23986;SDS011;12514;52.140;5.602;2022-07-23T10:44:08;1.67;;;1.05;;
23986;SDS011;12514;52.140;5.602;2022-07-23T10:50:43;2.60;;;1.25;;
23986;SDS011;12514;52.140;5.602;2022-07-23T10:58:54;1.10;;;0.80;;
23986;SDS011;12514;52.140;5.602;2022-07-23T11:01:35;1.40;;;1.10;;
23986;SDS011;12514;52.140;5.602;2022-07-23T11:04:03;1.20;;;1.10;;
23986;SDS011;12514;52.140;5.602;2022-07-23T11:09:25;1.70;;;0.90;;
23986;SDS011;12514;52.140;5.602;2022-07-23T11:17:39;1.85;;;1.15;;
23986;SDS011;12514;52.140;5.602;2022-07-23T11:20:24;1.08;;;0.88;;
23986;SDS011;12514;52.140;5.602;2022-07-23T11:22:57;1.83;;;1.30;;
23986;SDS011;12514;52.140;5.602;2022-07-23T11:27:55;0.95;;;0.95;;
23986;SDS011;12514;52.140;5.602;2022-07-23T11:30:43;1.15;;;1.00;;
23986;SDS011;12514;52.140;5.602;2022-07-23T11:35:37;1.27;;;1.17;;
23986;SDS011;12514;52.140;5.602;2022-07-23T11:38:05;3.22;;;0.90;;
23986;SDS011;12514;52.140;5.602;2022-07-23T11:40:43;2.38;;;1.00;;
23986;SDS011;12514;52.140;5.602;2022-07-23T11:43:10;1.40;;;1.17;;
23986;SDS011;12514;52.140;5.602;2022-07-23T11:45:38;1.58;;;0.90;;
23986;SDS011;12514;52.140;5.602;2022-07-23T11:48:26;2.53;;;0.90;;
23986;SDS011;12514;52.140;5.602;2022-07-23T11:50:53;1.23;;;1.13;;
23986;SDS011;12514;52.140;5.602;2022-07-23T11:53:21;0.95;;;0.95;;
23986;SDS011;12514;52.140;5.602;2022-07-23T11:55:54;1.10;;;1.10;;
23986;SDS011;12514;52.140;5.602;2022-07-23T11:58:31;1.00;;;1.00;;
23986;SDS011;12514;52.140;5.602;2022-07-23T12:00:57;1.08;;;1.08;;
23986;SDS011;12514;52.140;5.602;2022-07-23T12:03:22;1.73;;;1.02;;
23986;SDS011;12514;52.140;5.602;2022-07-23T12:05:48;1.63;;;1.10;;
23986;SDS011;12514;52.140;5.602;2022-07-23T12:08:13;1.48;;;1.33;;
23986;SDS011;12514;52.140;5.602;2022-07-23T12:10:42;1.40;;;1.23;;
23986;SDS011;12514;52.140;5.602;2022-07-23T12:13:10;1.48;;;1.10;;
23986;SDS011;12514;52.140;5.602;2022-07-23T12:15:39;1.73;;;1.63;;
23986;SDS011;12514;52.140;5.602;2022-07-23T12:18:07;1.42;;;1.20;;
23986;SDS011;12514;52.140;5.602;2022-07-23T12:20:35;1.45;;;1.20;;
23986;SDS011;12514;52.140;5.602;2022-07-23T12:23:08;1.00;;;1.00;;
23986;SDS011;12514;52.140;5.602;2022-07-23T12:25:35;1.70;;;1.13;;
23986;SDS011;12514;52.140;5.602;2022-07-23T12:28:09;1.65;;;1.30;;
23986;SDS011;12514;52.140;5.602;2022-07-23T12:33:11;1.13;;;1.13;;
23986;SDS011;12514;52.140;5.602;2022-07-23T12:35:41;2.70;;;1.40;;
23986;SDS011;12514;52.140;5.602;2022-07-23T12:38:09;1.10;;;1.10;;
23986;SDS011;12514;52.140;5.602;2022-07-23T12:40:43;2.33;;;1.15;;
23986;SDS011;12514;52.140;5.602;2022-07-23T12:43:11;1.67;;;1.58;;
23986;SDS011;12514;52.140;5.602;2022-07-23T12:46:10;1.58;;;1.40;;
23986;SDS011;12514;52.140;5.602;2022-07-23T12:51:27;1.35;;;1.35;;
23986;SDS011;12514;52.140;5.602;2022-07-23T12:53:55;1.27;;;1.17;;
23986;SDS011;12514;52.140;5.602;2022-07-23T12:56:32;0.95;;;0.95;;
23986;SDS011;12514;52.140;5.602;2022-07-23T13:01:32;3.03;;;1.30;;
23986;SDS011;12514;52.140;5.602;2022-07-23T13:04:06;1.02;;;1.02;;
23986;SDS011;12514;52.140;5.602;2022-07-23T13:06:40;1.27;;;1.20;;
23986;SDS011;12514;52.140;5.602;2022-07-23T13:09:08;1.67;;;1.25;;
23986;SDS011;12514;52.140;5.602;2022-07-23T13:11:35;2.08;;;1.30;;
23986;SDS011;12514;52.140;5.602;2022-07-23T13:14:01;2.95;;;1.20;;
23986;SDS011;12514;52.140;5.602;2022-07-23T13:16:28;1.30;;;1.20;;
23986;SDS011;12514;52.140;5.602;2022-07-23T13:18:55;1.83;;;1.08;;
23986;SDS011;12514;52.140;5.602;2022-07-23T13:21:21;1.63;;;1.30;;
23986;SDS011;12514;52.140;5.602;2022-07-23T13:23:47;2.35;;;1.20;;
23986;SDS011;12514;52.140;5.602;2022-07-23T13:26:13;1.48;;;1.38;;
23986;SDS011;12514;52.140;5.602;2022-07-23T13:28:39;1.45;;;1.23;;
23986;SDS011;12514;52.140;5.602;2022-07-23T13:31:05;1.35;;;1.27;;
23986;SDS011;12514;52.140;5.602;2022-07-23T13:33:30;1.83;;;1.33;;
23986;SDS011;12514;52.140;5.602;2022-07-23T13:35:56;1.30;;;1.20;;
23986;SDS011;12514;52.140;5.602;2022-07-23T13:38:22;2.42;;;1.27;;
23986;SDS011;12514;52.140;5.602;2022-07-23T13:40:48;2.47;;;1.23;;
23986;SDS011;12514;52.140;5.602;2022-07-23T13:43:16;1.63;;;1.52;;
23986;SDS011;12514;52.140;5.602;2022-07-23T13:45:43;1.42;;;1.33;;
23986;SDS011;12514;52.140;5.602;2022-07-23T13:48:11;1.20;;;0.93;;
23986;SDS011;12514;52.140;5.602;2022-07-23T13:50:38;1.20;;;1.20;;
23986;SDS011;12514;52.140;5.602;2022-07-23T13:53:05;1.77;;;1.13;;
23986;SDS011;12514;52.140;5.602;2022-07-23T13:55:32;4.05;;;1.30;;
23986;SDS011;12514;52.140;5.602;2022-07-23T13:57:59;1.63;;;1.52;;
23986;SDS011;12514;52.140;5.602;2022-07-23T14:00:26;2.22;;;1.20;;
23986;SDS011;12514;52.140;5.602;2022-07-23T14:02:52;1.52;;;1.20;;
23986;SDS011;12514;52.140;5.602;2022-07-23T14:05:18;1.30;;;1.20;;
23986;SDS011;12514;52.140;5.602;2022-07-23T14:07:44;1.15;;;1.13;;
23986;SDS011;12514;52.140;5.602;2022-07-23T14:10:12;1.70;;;1.60;;
23986;SDS011;12514;52.140;5.602;2022-07-23T14:12:38;1.38;;;1.27;;
23986;SDS011;12514;52.140;5.602;2022-07-23T14:15:04;1.23;;;1.17;;
23986;SDS011;12514;52.140;5.602;2022-07-23T14:17:31;1.42;;;1.42;;
23986;SDS011;12514;52.140;5.602;2022-07-23T14:19:58;1.65;;;1.55;;
23986;SDS011;12514;52.140;5.602;2022-07-23T14:22:23;1.50;;;1.40;;
23986;SDS011;12514;52.140;5.602;2022-07-23T14:24:49;1.70;;;1.60;;
23986;SDS011;12514;52.140;5.602;2022-07-23T14:30:50;1.33;;;1.30;;
23986;SDS011;12514;52.140;5.602;2022-07-23T14:33:15;3.10;;;1.33;;
23986;SDS011;12514;52.140;5.602;2022-07-23T14:35:41;1.33;;;1.33;;
23986;SDS011;12514;52.140;5.602;2022-07-23T14:38:07;1.90;;;1.50;;
23986;SDS011;12514;52.140;5.602;2022-07-23T14:40:32;1.67;;;1.58;;
23986;SDS011;12514;52.140;5.602;2022-07-23T14:42:58;3.70;;;1.25;;
23986;SDS011;12514;52.140;5.602;2022-07-23T14:45:24;2.35;;;1.52;;
23986;SDS011;12514;52.140;5.602;2022-07-23T14:47:50;1.85;;;1.23;;
23986;SDS011;12514;52.140;5.602;2022-07-23T14:50:15;4.10;;;1.52;;
23986;SDS011;12514;52.140;5.602;2022-07-23T14:52:41;1.50;;;1.42;;
23986;SDS011;12514;52.140;5.602;2022-07-23T14:55:07;2.95;;;1.52;;
23986;SDS011;12514;52.140;5.602;2022-07-23T15:00:54;2.05;;;1.40;;
23986;SDS011;12514;52.140;5.602;2022-07-23T15:03:20;3.67;;;1.33;;
23986;SDS011;12514;52.140;5.602;2022-07-23T15:05:46;1.13;;;1.13;;
23986;SDS011;12514;52.140;5.602;2022-07-23T15:08:12;1.23;;;1.23;;
23986;SDS011;12514;52.140;5.602;2022-07-23T15:10:38;1.40;;;1.30;;
23986;SDS011;12514;52.140;5.602;2022-07-23T15:13:03;1.20;;;1.10;;
23986;SDS011;12514;52.140;5.602;2022-07-23T15:15:29;2.45;;;1.50;;
23986;SDS011;12514;52.140;5.602;2022-07-23T15:17:55;1.52;;;1.35;;
23986;SDS011;12514;52.140;5.602;2022-07-23T15:20:21;2.67;;;1.40;;
23986;SDS011;12514;52.140;5.602;2022-07-23T15:22:46;1.70;;;1.60;;
23986;SDS011;12514;52.140;5.602;2022-07-23T15:25:12;2.45;;;1.40;;
23986;SDS011;12514;52.140;5.602;2022-07-23T15:31:01;1.20;;;1.20;;
23986;SDS011;12514;52.140;5.602;2022-07-23T15:33:27;1.40;;;1.30;;
23986;SDS011;12514;52.140;5.602;2022-07-23T15:35:52;1.42;;;1.33;;
23986;SDS011;12514;52.140;5.602;2022-07-23T15:38:21;1.80;;;1.20;;
23986;SDS011;12514;52.140;5.602;2022-07-23T15:40:46;1.25;;;1.20;;
23986;SDS011;12514;52.140;5.602;2022-07-23T15:43:12;1.30;;;1.20;;
23986;SDS011;12514;52.140;5.602;2022-07-23T15:45:38;1.48;;;1.38;;
23986;SDS011;12514;52.140;5.602;2022-07-23T15:48:04;1.50;;;1.40;;
23986;SDS011;12514;52.140;5.602;2022-07-23T15:50:30;3.10;;;1.40;;
23986;SDS011;12514;52.140;5.602;2022-07-23T15:52:56;1.42;;;1.30;;
23986;SDS011;12514;52.140;5.602;2022-07-23T15:55:22;2.08;;;1.45;;
23986;SDS011;12514;52.140;5.602;2022-07-23T16:01:10;2.33;;;1.60;;
23986;SDS011;12514;52.140;5.602;2022-07-23T16:03:36;1.88;;;1.48;;
23986;SDS011;12514;52.140;5.602;2022-07-23T16:06:02;3.03;;;1.20;;
23986;SDS011;12514;52.140;5.602;2022-07-23T16:08:28;1.48;;;1.30;;
23986;SDS011;12514;52.140;5.602;2022-07-23T16:10:54;2.95;;;1.50;;
23986;SDS011;12514;52.140;5.602;2022-07-23T16:13:23;1.50;;;1.40;;
23986;SDS011;12514;52.140;5.602;2022-07-23T16:15:49;1.45;;;1.20;;
23986;SDS011;12514;52.140;5.602;2022-07-23T16:18:15;2.65;;;1.92;;
23986;SDS011;12514;52.140;5.602;2022-07-23T16:20:41;1.35;;;1.23;;
23986;SDS011;12514;52.140;5.602;2022-07-23T16:23:07;3.67;;;1.83;;
23986;SDS011;12514;52.140;5.602;2022-07-23T16:25:33;5.55;;;1.67;;
23986;SDS011;12514;52.140;5.602;2022-07-23T16:31:21;1.48;;;1.20;;
23986;SDS011;12514;52.140;5.602;2022-07-23T16:33:46;3.08;;;1.55;;
23986;SDS011;12514;52.140;5.602;2022-07-23T16:36:12;1.95;;;1.80;;
23986;SDS011;12514;52.140;5.602;2022-07-23T16:38:38;1.50;;;1.40;;
23986;SDS011;12514;52.140;5.602;2022-07-23T16:41:05;2.33;;;1.70;;
23986;SDS011;12514;52.140;5.602;2022-07-23T16:43:31;1.98;;;1.85;;
23986;SDS011;12514;52.140;5.602;2022-07-23T16:45:58;2.72;;;2.08;;
23986;SDS011;12514;52.140;5.602;2022-07-23T16:48:24;1.52;;;1.42;;
23986;SDS011;12514;52.140;5.602;2022-07-23T16:50:50;2.97;;;1.70;;
23986;SDS011;12514;52.140;5.602;2022-07-23T16:53:16;1.80;;;1.70;;
23986;SDS011;12514;52.140;5.602;2022-07-23T16:55:42;1.80;;;1.70;;